Map

Track Data

SID SEASON NUMBER BASIN SUBBASIN NAME ISO_TIME NATURE LAT LON WMO_WIND WMO_PRES WMO_AGENCY TRACK_TYPE DIST2LAND LANDFALL IFLAG USA_AGENCY USA_ATCF_ID USA_LAT USA_LON USA_RECORD USA_STATUS USA_WIND USA_PRES USA_SSHS USA_R34_NE USA_R34_SE USA_R34_SW USA_R34_NW USA_R50_NE USA_R50_SE USA_R50_SW USA_R50_NW USA_R64_NE USA_R64_SE USA_R64_SW USA_R64_NW USA_POCI USA_ROCI USA_RMW USA_EYE TOKYO_LAT TOKYO_LON TOKYO_GRADE TOKYO_WIND TOKYO_PRES TOKYO_R50_DIR TOKYO_R50_LONG TOKYO_R50_SHORT TOKYO_R30_DIR TOKYO_R30_LONG TOKYO_R30_SHORT TOKYO_LAND CMA_LAT CMA_LON CMA_CAT CMA_WIND CMA_PRES HKO_LAT HKO_LON HKO_CAT HKO_WIND HKO_PRES NEWDELHI_LAT NEWDELHI_LON NEWDELHI_GRADE NEWDELHI_WIND NEWDELHI_PRES NEWDELHI_CI NEWDELHI_DP NEWDELHI_POCI REUNION_LAT REUNION_LON REUNION_TYPE REUNION_WIND REUNION_PRES REUNION_TNUM REUNION_CI REUNION_RMW REUNION_R34_NE REUNION_R34_SE REUNION_R34_SW REUNION_R34_NW REUNION_R50_NE REUNION_R50_SE REUNION_R50_SW REUNION_R50_NW REUNION_R64_NE REUNION_R64_SE REUNION_R64_SW REUNION_R64_NW BOM_LAT BOM_LON BOM_TYPE BOM_WIND BOM_PRES BOM_TNUM BOM_CI BOM_RMW BOM_R34_NE BOM_R34_SE BOM_R34_SW BOM_R34_NW BOM_R50_NE BOM_R50_SE BOM_R50_SW BOM_R50_NW BOM_R64_NE BOM_R64_SE BOM_R64_SW BOM_R64_NW BOM_ROCI BOM_POCI BOM_EYE BOM_POS_METHOD BOM_PRES_METHOD NADI_LAT NADI_LON NADI_CAT NADI_WIND NADI_PRES WELLINGTON_LAT WELLINGTON_LON WELLINGTON_WIND WELLINGTON_PRES DS824_LAT DS824_LON DS824_STAGE DS824_WIND DS824_PRES TD9636_LAT TD9636_LON TD9636_STAGE TD9636_WIND TD9636_PRES TD9635_LAT TD9635_LON TD9635_WIND TD9635_PRES TD9635_ROCI NEUMANN_LAT NEUMANN_LON NEUMANN_CLASS NEUMANN_WIND NEUMANN_PRES MLC_LAT MLC_LON MLC_CLASS MLC_WIND MLC_PRES USA_GUST BOM_GUST BOM_GUST_PER REUNION_GUST REUNION_GUST_PER USA_SEAHGT USA_SEARAD_NE USA_SEARAD_SE USA_SEARAD_SW USA_SEARAD_NW STORM_SPEED STORM_DIR
1955273N18090 1955 78 NI BB NOT_NAMED 1955-09-29 18:00:00 TS 18.1000 89.9000 main 383 338 O________O____ jtwc_io IO071955 18.1000 89.9000 -1 18.1000 89.9000 TC 14 305
1955273N18090 1955 78 NI BB NOT_NAMED 1955-09-29 21:00:00 TS 18.5079 89.2931 main 338 261 P________P____ IO071955 18.5079 89.2931 -1 18.5079 89.2931 TC 14 305
1955273N18090 1955 78 NI BB NOT_NAMED 1955-09-30 00:00:00 TS 18.9000 88.7000 main 261 199 O________O____ jtwc_io IO071955 18.9000 88.7000 -1 18.9000 88.7000 TC 35 13 305
1955273N18090 1955 78 NI BB NOT_NAMED 1955-09-30 03:00:00 TS 19.2687 88.1309 main 184 122 P________PO___ IO071955 19.2648 88.1348 -1 19.2648 88.1348 TC 30 19.3000 88.1000 2 13 304
1955273N18090 1955 78 NI BB NOT_NAMED 1955-09-30 06:00:00 TS 19.6008 87.6043 main 122 61 O________OP___ jtwc_io IO071955 19.6000 87.6000 -1 19.6000 87.6000 TC 25 19.6040 87.6215 2 12 304
1955273N18090 1955 78 NI BB NOT_NAMED 1955-09-30 09:00:00 TS 19.9069 87.1090 main 61 10 P________PP___ IO071955 19.9072 87.0997 -1 19.9072 87.0997 TC 25 19.9059 87.1337 2 11 303
1955273N18090 1955 78 NI BB NOT_NAMED 1955-09-30 12:00:00 TS 20.2016 86.6097 main 10 0 O________OP___ jtwc_io IO071955 20.2000 86.6000 -1 20.2000 86.6000 TC 25 20.2049 86.6291 2 11 302
1955273N18090 1955 78 NI BB NOT_NAMED 1955-09-30 15:00:00 TS 20.5049 86.0766 main 0 0 P________PO___ IO071955 20.5073 86.0649 -1 20.5073 86.0649 TC 25 20.5000 86.1000 1 12 300
1955273N18090 1955 78 NI BB NOT_NAMED 1955-09-30 18:00:00 TS 20.7966 85.5135 main 0 0 O________OP___ jtwc_io IO071955 20.8000 85.5000 -1 20.8000 85.5000 TC 25 20.7898 85.5405 1 12 297
1955273N18090 1955 78 NI BB NOT_NAMED 1955-09-30 21:00:00 TS 21.0621 84.9271 main 0 0 P________PP___ IO071955 21.0573 84.9147 -1 21.0573 84.9147 TC 25 21.0718 84.9519 1 12 295
1955273N18090 1955 78 NI BB NOT_NAMED 1955-10-01 00:00:00 TS 21.3143 84.3124 main 0 0 O________OP___ jtwc_io IO071955 21.3000 84.3000 -1 21.3000 84.3000 TC 25 21.3428 84.3373 1 13 293
1955273N18090 1955 78 NI BB NOT_NAMED 1955-10-01 03:00:00 TS 21.5666 83.6715 main 0 0 P________PO___ IO071955 21.5498 83.6573 -1 21.5498 83.6573 TC 25 21.6000 83.7000 1 13 292
1955273N18090 1955 78 NI BB NOT_NAMED 1955-10-01 06:00:00 TS 21.8146 83.0060 main 0 0 O________OP___ jtwc_io IO071955 21.8000 83.0000 -1 21.8000 83.0000 TC 25 21.8438 83.0179 1 13 292
1955273N18090 1955 78 NI BB NOT_NAMED 1955-10-01 09:00:00 TS 22.0625 82.3398 main 0 0 P________PP___ IO071955 22.0572 82.3499 -1 22.0572 82.3499 TC 25 22.0731 82.3197 1 13 291
1955273N18090 1955 78 NI BB NOT_NAMED 1955-10-01 12:00:00 TS 22.2969 81.6789 main 0 0 O________OP___ jtwc_io IO071955 22.3000 81.7000 -1 22.3000 81.7000 TC 25 22.2907 81.6367 1 13 290
1955273N18090 1955 78 NI BB NOT_NAMED 1955-10-01 15:00:00 TS 22.5050 81.0182 main 0 0 P________PO___ IO071955 22.5075 81.0273 -1 22.5075 81.0273 TC 25 22.5000 81.0000 1 12 289
1955273N18090 1955 78 NI BB NOT_NAMED 1955-10-01 18:00:00 TS 22.7062 80.4083 main 0 0 O________OP___ jtwc_io IO071955 22.7000 80.4000 -1 22.7000 80.4000 TC 25 22.7185 80.4250 1 11 291
1955273N18090 1955 78 NI BB NOT_NAMED 1955-10-01 21:00:00 TS 22.9145 79.8757 main 0 0 P________PP___ IO071955 22.9072 79.8624 -1 22.9072 79.8624 TC 25 22.9290 79.9022 1 10 294
1955273N18090 1955 78 NI BB NOT_NAMED 1955-10-02 00:00:00 TS 23.1083 79.4094 main 0 0 O________OP___ jtwc_io IO071955 23.1000 79.4000 -1 23.1000 79.4000 TC 25 23.1250 79.4283 1 9 294
1955273N18090 1955 78 NI BB NOT_NAMED 1955-10-02 03:00:00 TS 23.2716 78.9849 main 0 0 P________PO___ IO071955 23.2573 78.9773 -1 23.2573 78.9773 TC 25 23.3000 79.0000 1 8 292
1955273N18090 1955 78 NI BB NOT_NAMED 1955-10-02 06:00:00 TS 23.4112 78.5993 main 0 0 O________OP___ jtwc_io IO071955 23.4000 78.6000 -1 23.4000 78.6000 TC 25 23.4337 78.5979 1 7 292
1955273N18090 1955 78 NI BB NOT_NAMED 1955-10-02 09:00:00 TS 23.5497 78.2362 main 0 0 P________PP___ IO071955 23.5499 78.2349 -1 23.5499 78.2349 TC 25 23.5492 78.2388 1 7 293
1955273N18090 1955 78 NI AS NOT_NAMED 1955-10-02 12:00:00 TS 23.6884 77.9035 main 0 0 O________OP___ jtwc_io IO071955 23.7000 77.9000 -1 23.7000 77.9000 TC 25 23.6651 77.9105 1 7 295
1955273N18090 1955 78 NI AS NOT_NAMED 1955-10-02 15:00:00 TS 23.8283 77.5949 main 0 0 P________PO___ IO071955 23.8424 77.5924 -1 23.8424 77.5924 TC 25 23.8000 77.6000 1 6 298
1955273N18090 1955 78 NI AS NOT_NAMED 1955-10-02 18:00:00 TS 23.9871 77.2986 main 0 0 O________OP___ jtwc_io IO071955 24.0000 77.3000 -1 24.0000 77.3000 TC 25 23.9676 77.2964 1 6 303
1955273N18090 1955 78 NI AS NOT_NAMED 1955-10-02 21:00:00 TS 24.1786 77.0000 main 0 0 P________PP___ IO071955 24.1901 77.0027 -1 24.1901 77.0027 TC 25 24.1632 76.9963 1 7 306
1955273N18090 1955 78 NI AS NOT_NAMED 1955-10-03 00:00:00 TS 24.3886 76.6990 main 0 0 O________OP___ jtwc_io IO071955 24.4000 76.7000 -1 24.4000 76.7000 TC 25 24.3771 76.6980 1 7 308
1955273N18090 1955 78 NI AS NOT_NAMED 1955-10-03 03:00:00 NR 24.6000 76.4000 main 0 __________O___ IO071955 -1 TC 24.6000 76.4000 1 7 308

About IBTrACS Database

This database is a web-friendly format of International Best Track Archive for Climate Stewardship (IBTrACS), a global best track data archive curated by NOAA dating back to 1842.

Updated: 2021-10-08